sensor_id;sensor_type;location;lat;lon;timestamp;P1;durP1;ratioP1;P2;durP2;ratioP2
24259;SDS011;12384;48.112;18.418;2023-04-24T00:00:40;13.33;;;12.47;;
24259;SDS011;12384;48.112;18.418;2023-04-24T00:03:08;13.53;;;12.63;;
24259;SDS011;12384;48.112;18.418;2023-04-24T00:05:37;13.53;;;12.63;;
24259;SDS011;12384;48.112;18.418;2023-04-24T00:08:09;13.23;;;12.23;;
24259;SDS011;12384;48.112;18.418;2023-04-24T00:10:37;13.20;;;12.30;;
24259;SDS011;12384;48.112;18.418;2023-04-24T00:13:06;13.33;;;12.53;;
24259;SDS011;12384;48.112;18.418;2023-04-24T00:15:35;13.33;;;12.53;;
24259;SDS011;12384;48.112;18.418;2023-04-24T00:18:03;12.80;;;12.00;;
24259;SDS011;12384;48.112;18.418;2023-04-24T00:20:32;13.40;;;12.60;;
24259;SDS011;12384;48.112;18.418;2023-04-24T00:23:02;13.27;;;12.47;;
24259;SDS011;12384;48.112;18.418;2023-04-24T00:25:31;13.10;;;12.30;;
24259;SDS011;12384;48.112;18.418;2023-04-24T00:28:00;13.23;;;12.30;;
24259;SDS011;12384;48.112;18.418;2023-04-24T00:30:28;13.27;;;12.43;;
24259;SDS011;12384;48.112;18.418;2023-04-24T00:32:57;15.57;;;14.30;;
24259;SDS011;12384;48.112;18.418;2023-04-24T00:35:26;16.10;;;15.10;;
24259;SDS011;12384;48.112;18.418;2023-04-24T00:37:54;14.87;;;13.87;;
24259;SDS011;12384;48.112;18.418;2023-04-24T00:40:22;15.70;;;14.60;;
24259;SDS011;12384;48.112;18.418;2023-04-24T00:42:52;14.23;;;13.33;;
24259;SDS011;12384;48.112;18.418;2023-04-24T00:45:21;14.93;;;13.70;;
24259;SDS011;12384;48.112;18.418;2023-04-24T00:47:49;16.33;;;14.70;;
24259;SDS011;12384;48.112;18.418;2023-04-24T00:50:20;14.50;;;13.60;;
24259;SDS011;12384;48.112;18.418;2023-04-24T00:52:49;15.23;;;14.23;;
24259;SDS011;12384;48.112;18.418;2023-04-24T00:55:18;15.30;;;14.30;;
24259;SDS011;12384;48.112;18.418;2023-04-24T00:57:46;15.60;;;14.27;;
24259;SDS011;12384;48.112;18.418;2023-04-24T01:00:17;13.70;;;12.70;;
24259;SDS011;12384;48.112;18.418;2023-04-24T01:02:46;14.47;;;13.47;;
24259;SDS011;12384;48.112;18.418;2023-04-24T01:05:16;14.50;;;13.60;;
24259;SDS011;12384;48.112;18.418;2023-04-24T01:07:45;15.00;;;14.00;;
24259;SDS011;12384;48.112;18.418;2023-04-24T01:10:15;13.60;;;12.70;;
24259;SDS011;12384;48.112;18.418;2023-04-24T01:12:45;13.37;;;12.57;;
24259;SDS011;12384;48.112;18.418;2023-04-24T01:15:14;14.10;;;13.30;;
24259;SDS011;12384;48.112;18.418;2023-04-24T01:17:43;14.27;;;13.37;;
24259;SDS011;12384;48.112;18.418;2023-04-24T01:20:13;14.10;;;13.20;;
24259;SDS011;12384;48.112;18.418;2023-04-24T01:22:43;14.37;;;13.37;;
24259;SDS011;12384;48.112;18.418;2023-04-24T01:25:12;14.07;;;13.17;;
24259;SDS011;12384;48.112;18.418;2023-04-24T01:27:40;14.47;;;13.53;;
24259;SDS011;12384;48.112;18.418;2023-04-24T01:30:11;15.00;;;13.90;;
24259;SDS011;12384;48.112;18.418;2023-04-24T01:32:40;14.90;;;13.70;;
24259;SDS011;12384;48.112;18.418;2023-04-24T01:35:11;13.90;;;13.00;;
24259;SDS011;12384;48.112;18.418;2023-04-24T01:37:39;15.20;;;14.20;;
24259;SDS011;12384;48.112;18.418;2023-04-24T01:40:09;15.20;;;14.20;;
24259;SDS011;12384;48.112;18.418;2023-04-24T01:42:38;14.60;;;13.67;;
24259;SDS011;12384;48.112;18.418;2023-04-24T01:45:10;14.23;;;13.33;;
24259;SDS011;12384;48.112;18.418;2023-04-24T01:47:39;14.47;;;13.57;;
24259;SDS011;12384;48.112;18.418;2023-04-24T01:50:09;14.40;;;13.50;;
24259;SDS011;12384;48.112;18.418;2023-04-24T01:52:38;14.23;;;13.30;;
24259;SDS011;12384;48.112;18.418;2023-04-24T01:55:10;14.23;;;13.23;;
24259;SDS011;12384;48.112;18.418;2023-04-24T01:57:38;14.23;;;13.37;;
24259;SDS011;12384;48.112;18.418;2023-04-24T02:00:08;13.50;;;12.60;;
24259;SDS011;12384;48.112;18.418;2023-04-24T02:02:40;13.97;;;13.07;;
24259;SDS011;12384;48.112;18.418;2023-04-24T02:05:13;13.27;;;12.47;;
24259;SDS011;12384;48.112;18.418;2023-04-24T02:07:42;13.20;;;12.30;;
24259;SDS011;12384;48.112;18.418;2023-04-24T02:10:11;13.20;;;12.30;;
24259;SDS011;12384;48.112;18.418;2023-04-24T02:12:43;13.90;;;12.67;;
24259;SDS011;12384;48.112;18.418;2023-04-24T02:15:11;13.60;;;12.50;;
24259;SDS011;12384;48.112;18.418;2023-04-24T02:17:40;13.73;;;12.73;;
24259;SDS011;12384;48.112;18.418;2023-04-24T02:20:08;13.67;;;12.77;;
24259;SDS011;12384;48.112;18.418;2023-04-24T02:22:37;13.93;;;12.93;;
24259;SDS011;12384;48.112;18.418;2023-04-24T02:25:06;14.70;;;13.70;;
24259;SDS011;12384;48.112;18.418;2023-04-24T02:27:36;14.43;;;13.23;;
24259;SDS011;12384;48.112;18.418;2023-04-24T02:30:05;14.77;;;13.57;;
24259;SDS011;12384;48.112;18.418;2023-04-24T02:32:34;14.53;;;13.37;;
24259;SDS011;12384;48.112;18.418;2023-04-24T02:35:03;14.40;;;13.37;;
24259;SDS011;12384;48.112;18.418;2023-04-24T02:37:32;14.97;;;13.97;;
24259;SDS011;12384;48.112;18.418;2023-04-24T02:40:01;14.70;;;13.70;;
24259;SDS011;12384;48.112;18.418;2023-04-24T02:42:30;14.53;;;13.37;;
24259;SDS011;12384;48.112;18.418;2023-04-24T02:45:00;14.47;;;13.27;;
24259;SDS011;12384;48.112;18.418;2023-04-24T02:47:28;13.80;;;12.80;;
24259;SDS011;12384;48.112;18.418;2023-04-24T02:49:58;14.40;;;13.20;;
24259;SDS011;12384;48.112;18.418;2023-04-24T02:52:27;15.03;;;13.70;;
24259;SDS011;12384;48.112;18.418;2023-04-24T02:54:55;14.80;;;13.63;;
24259;SDS011;12384;48.112;18.418;2023-04-24T02:57:24;15.00;;;13.90;;
24259;SDS011;12384;48.112;18.418;2023-04-24T02:59:52;14.80;;;13.77;;
24259;SDS011;12384;48.112;18.418;2023-04-24T03:02:22;14.77;;;13.67;;
24259;SDS011;12384;48.112;18.418;2023-04-24T03:04:51;15.47;;;14.07;;
24259;SDS011;12384;48.112;18.418;2023-04-24T03:07:19;14.93;;;13.80;;
24259;SDS011;12384;48.112;18.418;2023-04-24T03:09:48;14.97;;;13.67;;
24259;SDS011;12384;48.112;18.418;2023-04-24T03:12:16;15.53;;;14.30;;
24259;SDS011;12384;48.112;18.418;2023-04-24T03:14:45;14.80;;;13.60;;
24259;SDS011;12384;48.112;18.418;2023-04-24T03:17:13;14.90;;;13.57;;
24259;SDS011;12384;48.112;18.418;2023-04-24T03:19:44;13.77;;;12.80;;
24259;SDS011;12384;48.112;18.418;2023-04-24T03:22:12;15.73;;;14.53;;
24259;SDS011;12384;48.112;18.418;2023-04-24T03:24:41;15.37;;;13.93;;
24259;SDS011;12384;48.112;18.418;2023-04-24T03:27:11;14.97;;;13.87;;
24259;SDS011;12384;48.112;18.418;2023-04-24T03:29:53;15.57;;;14.47;;
24259;SDS011;12384;48.112;18.418;2023-04-24T03:32:40;15.13;;;14.13;;
24259;SDS011;12384;48.112;18.418;2023-04-24T03:35:13;14.87;;;13.67;;
24259;SDS011;12384;48.112;18.418;2023-04-24T03:37:42;15.00;;;14.00;;
24259;SDS011;12384;48.112;18.418;2023-04-24T03:40:29;16.43;;;14.97;;
24259;SDS011;12384;48.112;18.418;2023-04-24T03:42:58;15.50;;;14.17;;
24259;SDS011;12384;48.112;18.418;2023-04-24T03:45:26;16.17;;;14.93;;
24259;SDS011;12384;48.112;18.418;2023-04-24T03:47:56;15.20;;;14.00;;
24259;SDS011;12384;48.112;18.418;2023-04-24T03:50:25;15.30;;;14.10;;
24259;SDS011;12384;48.112;18.418;2023-04-24T03:52:56;16.77;;;15.30;;
24259;SDS011;12384;48.112;18.418;2023-04-24T03:55:38;15.57;;;14.27;;
24259;SDS011;12384;48.112;18.418;2023-04-24T03:58:08;15.40;;;14.20;;
24259;SDS011;12384;48.112;18.418;2023-04-24T04:00:37;16.37;;;14.97;;
24259;SDS011;12384;48.112;18.418;2023-04-24T04:03:42;17.13;;;15.77;;
24259;SDS011;12384;48.112;18.418;2023-04-24T04:06:15;15.63;;;14.53;;
24259;SDS011;12384;48.112;18.418;2023-04-24T04:08:46;17.57;;;15.80;;
24259;SDS011;12384;48.112;18.418;2023-04-24T04:11:14;16.40;;;15.10;;
24259;SDS011;12384;48.112;18.418;2023-04-24T04:13:44;17.50;;;16.30;;
24259;SDS011;12384;48.112;18.418;2023-04-24T04:16:17;16.73;;;15.37;;
24259;SDS011;12384;48.112;18.418;2023-04-24T04:18:48;17.20;;;15.70;;
24259;SDS011;12384;48.112;18.418;2023-04-24T04:21:18;17.03;;;15.43;;
24259;SDS011;12384;48.112;18.418;2023-04-24T04:23:55;16.43;;;15.20;;
24259;SDS011;12384;48.112;18.418;2023-04-24T04:26:32;16.80;;;15.43;;
24259;SDS011;12384;48.112;18.418;2023-04-24T04:29:04;17.00;;;15.60;;
24259;SDS011;12384;48.112;18.418;2023-04-24T04:31:37;16.13;;;15.03;;
24259;SDS011;12384;48.112;18.418;2023-04-24T04:34:10;17.00;;;15.57;;
24259;SDS011;12384;48.112;18.418;2023-04-24T04:36:41;17.17;;;15.70;;
24259;SDS011;12384;48.112;18.418;2023-04-24T04:39:30;16.63;;;15.23;;
24259;SDS011;12384;48.112;18.418;2023-04-24T04:42:05;16.30;;;15.10;;
24259;SDS011;12384;48.112;18.418;2023-04-24T04:44:38;15.83;;;14.63;;
24259;SDS011;12384;48.112;18.418;2023-04-24T04:47:11;16.50;;;15.20;;
24259;SDS011;12384;48.112;18.418;2023-04-24T04:49:41;17.10;;;15.80;;
24259;SDS011;12384;48.112;18.418;2023-04-24T04:52:21;16.80;;;15.50;;
24259;SDS011;12384;48.112;18.418;2023-04-24T04:54:57;16.67;;;15.47;;
24259;SDS011;12384;48.112;18.418;2023-04-24T04:57:46;16.43;;;15.10;;
24259;SDS011;12384;48.112;18.418;2023-04-24T05:00:15;16.53;;;15.17;;
24259;SDS011;12384;48.112;18.418;2023-04-24T05:02:49;16.03;;;14.70;;
24259;SDS011;12384;48.112;18.418;2023-04-24T05:05:18;16.00;;;14.80;;
24259;SDS011;12384;48.112;18.418;2023-04-24T05:07:49;16.63;;;15.30;;
24259;SDS011;12384;48.112;18.418;2023-04-24T05:10:18;15.97;;;14.77;;
24259;SDS011;12384;48.112;18.418;2023-04-24T05:12:47;14.90;;;13.77;;
24259;SDS011;12384;48.112;18.418;2023-04-24T05:15:16;15.63;;;14.43;;
24259;SDS011;12384;48.112;18.418;2023-04-24T05:17:44;16.37;;;14.97;;
24259;SDS011;12384;48.112;18.418;2023-04-24T05:20:13;15.40;;;14.17;;
24259;SDS011;12384;48.112;18.418;2023-04-24T05:22:42;15.40;;;14.30;;
24259;SDS011;12384;48.112;18.418;2023-04-24T05:25:15;14.47;;;13.47;;
24259;SDS011;12384;48.112;18.418;2023-04-24T05:27:50;14.90;;;13.73;;
24259;SDS011;12384;48.112;18.418;2023-04-24T05:30:21;15.10;;;13.80;;
24259;SDS011;12384;48.112;18.418;2023-04-24T05:32:50;14.40;;;13.23;;
24259;SDS011;12384;48.112;18.418;2023-04-24T05:35:19;14.30;;;13.20;;
24259;SDS011;12384;48.112;18.418;2023-04-24T05:37:47;14.90;;;13.50;;
24259;SDS011;12384;48.112;18.418;2023-04-24T05:40:18;15.33;;;14.13;;
24259;SDS011;12384;48.112;18.418;2023-04-24T05:42:47;14.87;;;13.87;;
24259;SDS011;12384;48.112;18.418;2023-04-24T05:45:15;15.07;;;13.87;;
24259;SDS011;12384;48.112;18.418;2023-04-24T05:47:44;14.53;;;13.53;;
24259;SDS011;12384;48.112;18.418;2023-04-24T05:50:13;14.93;;;13.83;;
24259;SDS011;12384;48.112;18.418;2023-04-24T05:52:41;14.60;;;13.40;;
24259;SDS011;12384;48.112;18.418;2023-04-24T05:55:23;17.33;;;14.27;;
24259;SDS011;12384;48.112;18.418;2023-04-24T05:57:53;13.90;;;12.80;;
24259;SDS011;12384;48.112;18.418;2023-04-24T06:00:23;14.63;;;13.47;;
24259;SDS011;12384;48.112;18.418;2023-04-24T06:02:59;14.00;;;12.90;;
24259;SDS011;12384;48.112;18.418;2023-04-24T06:05:31;14.00;;;12.87;;
24259;SDS011;12384;48.112;18.418;2023-04-24T06:08:01;14.20;;;13.13;;
24259;SDS011;12384;48.112;18.418;2023-04-24T06:10:36;13.70;;;12.60;;
24259;SDS011;12384;48.112;18.418;2023-04-24T06:13:06;14.73;;;13.47;;
24259;SDS011;12384;48.112;18.418;2023-04-24T06:15:38;14.00;;;12.70;;
24259;SDS011;12384;48.112;18.418;2023-04-24T06:18:11;13.53;;;12.63;;
24259;SDS011;12384;48.112;18.418;2023-04-24T06:20:41;13.57;;;12.37;;
24259;SDS011;12384;48.112;18.418;2023-04-24T06:23:09;12.93;;;12.00;;
24259;SDS011;12384;48.112;18.418;2023-04-24T06:25:39;13.40;;;12.30;;
24259;SDS011;12384;48.112;18.418;2023-04-24T06:28:10;12.90;;;12.00;;
24259;SDS011;12384;48.112;18.418;2023-04-24T06:30:40;13.17;;;12.27;;
24259;SDS011;12384;48.112;18.418;2023-04-24T06:33:10;12.20;;;11.30;;
24259;SDS011;12384;48.112;18.418;2023-04-24T06:35:44;13.87;;;12.47;;
24259;SDS011;12384;48.112;18.418;2023-04-24T06:38:13;13.07;;;12.23;;
24259;SDS011;12384;48.112;18.418;2023-04-24T06:40:44;12.73;;;11.87;;
24259;SDS011;12384;48.112;18.418;2023-04-24T06:43:13;13.00;;;11.90;;
24259;SDS011;12384;48.112;18.418;2023-04-24T06:45:41;12.97;;;11.97;;
24259;SDS011;12384;48.112;18.418;2023-04-24T06:48:11;13.30;;;12.13;;
24259;SDS011;12384;48.112;18.418;2023-04-24T06:50:40;13.13;;;12.00;;
24259;SDS011;12384;48.112;18.418;2023-04-24T06:53:08;12.67;;;11.77;;
24259;SDS011;12384;48.112;18.418;2023-04-24T06:55:39;12.27;;;11.47;;
24259;SDS011;12384;48.112;18.418;2023-04-24T06:58:11;14.30;;;13.13;;
24259;SDS011;12384;48.112;18.418;2023-04-24T07:00:40;11.97;;;11.17;;
24259;SDS011;12384;48.112;18.418;2023-04-24T07:03:09;13.10;;;11.80;;
24259;SDS011;12384;48.112;18.418;2023-04-24T07:05:37;13.13;;;12.13;;
24259;SDS011;12384;48.112;18.418;2023-04-24T07:08:06;13.33;;;12.33;;
24259;SDS011;12384;48.112;18.418;2023-04-24T07:10:38;14.50;;;13.40;;
24259;SDS011;12384;48.112;18.418;2023-04-24T07:13:06;15.03;;;13.93;;
24259;SDS011;12384;48.112;18.418;2023-04-24T07:15:36;14.60;;;13.40;;
24259;SDS011;12384;48.112;18.418;2023-04-24T07:18:06;14.13;;;13.23;;
24259;SDS011;12384;48.112;18.418;2023-04-24T07:20:35;14.67;;;13.57;;
24259;SDS011;12384;48.112;18.418;2023-04-24T07:23:03;14.80;;;13.70;;
24259;SDS011;12384;48.112;18.418;2023-04-24T07:25:32;15.33;;;14.23;;
24259;SDS011;12384;48.112;18.418;2023-04-24T07:28:00;15.47;;;14.37;;
24259;SDS011;12384;48.112;18.418;2023-04-24T07:30:29;16.80;;;15.37;;
24259;SDS011;12384;48.112;18.418;2023-04-24T07:33:00;16.53;;;15.33;;
24259;SDS011;12384;48.112;18.418;2023-04-24T07:35:29;16.47;;;15.37;;
24259;SDS011;12384;48.112;18.418;2023-04-24T07:37:57;17.93;;;16.33;;
24259;SDS011;12384;48.112;18.418;2023-04-24T07:40:26;42.67;;;30.33;;
24259;SDS011;12384;48.112;18.418;2023-04-24T07:42:55;33.07;;;25.50;;
24259;SDS011;12384;48.112;18.418;2023-04-24T07:45:23;23.53;;;20.90;;
24259;SDS011;12384;48.112;18.418;2023-04-24T07:47:52;19.17;;;17.33;;
24259;SDS011;12384;48.112;18.418;2023-04-24T07:50:22;24.77;;;21.50;;
24259;SDS011;12384;48.112;18.418;2023-04-24T07:52:51;18.23;;;16.73;;
24259;SDS011;12384;48.112;18.418;2023-04-24T07:55:19;16.60;;;15.40;;
24259;SDS011;12384;48.112;18.418;2023-04-24T07:57:52;24.70;;;19.77;;
24259;SDS011;12384;48.112;18.418;2023-04-24T08:00:20;17.83;;;16.37;;
24259;SDS011;12384;48.112;18.418;2023-04-24T08:02:49;18.67;;;16.80;;
24259;SDS011;12384;48.112;18.418;2023-04-24T08:05:17;23.00;;;19.23;;
24259;SDS011;12384;48.112;18.418;2023-04-24T08:07:47;18.80;;;16.93;;
24259;SDS011;12384;48.112;18.418;2023-04-24T08:10:16;17.10;;;15.40;;
24259;SDS011;12384;48.112;18.418;2023-04-24T08:12:45;16.93;;;15.43;;
24259;SDS011;12384;48.112;18.418;2023-04-24T08:15:14;14.87;;;13.57;;
24259;SDS011;12384;48.112;18.418;2023-04-24T08:17:42;20.43;;;17.47;;
24259;SDS011;12384;48.112;18.418;2023-04-24T08:20:11;18.17;;;15.33;;
24259;SDS011;12384;48.112;18.418;2023-04-24T08:22:41;19.80;;;16.77;;
24259;SDS011;12384;48.112;18.418;2023-04-24T08:25:14;16.57;;;15.17;;
24259;SDS011;12384;48.112;18.418;2023-04-24T08:27:44;21.73;;;16.07;;
24259;SDS011;12384;48.112;18.418;2023-04-24T08:30:13;23.33;;;18.00;;
24259;SDS011;12384;48.112;18.418;2023-04-24T08:32:41;36.13;;;24.57;;
24259;SDS011;12384;48.112;18.418;2023-04-24T08:35:10;23.07;;;20.60;;
24259;SDS011;12384;48.112;18.418;2023-04-24T08:37:39;21.97;;;19.87;;
24259;SDS011;12384;48.112;18.418;2023-04-24T08:40:10;19.60;;;17.63;;
24259;SDS011;12384;48.112;18.418;2023-04-24T08:42:43;17.10;;;15.63;;
24259;SDS011;12384;48.112;18.418;2023-04-24T08:45:12;17.20;;;15.77;;
24259;SDS011;12384;48.112;18.418;2023-04-24T08:47:41;17.40;;;15.80;;
24259;SDS011;12384;48.112;18.418;2023-04-24T08:50:10;18.60;;;16.77;;
24259;SDS011;12384;48.112;18.418;2023-04-24T08:52:39;15.80;;;14.53;;
24259;SDS011;12384;48.112;18.418;2023-04-24T08:55:09;16.37;;;14.77;;
24259;SDS011;12384;48.112;18.418;2023-04-24T08:57:38;15.07;;;13.73;;
24259;SDS011;12384;48.112;18.418;2023-04-24T09:00:09;14.80;;;13.70;;
24259;SDS011;12384;48.112;18.418;2023-04-24T09:02:39;13.93;;;12.63;;
24259;SDS011;12384;48.112;18.418;2023-04-24T09:05:11;13.30;;;12.10;;
24259;SDS011;12384;48.112;18.418;2023-04-24T09:07:41;14.40;;;13.20;;
24259;SDS011;12384;48.112;18.418;2023-04-24T09:10:12;14.37;;;13.07;;
24259;SDS011;12384;48.112;18.418;2023-04-24T09:12:42;13.43;;;12.43;;
24259;SDS011;12384;48.112;18.418;2023-04-24T09:15:12;13.30;;;12.10;;
24259;SDS011;12384;48.112;18.418;2023-04-24T09:17:42;14.03;;;12.83;;
24259;SDS011;12384;48.112;18.418;2023-04-24T09:20:11;14.53;;;13.07;;
24259;SDS011;12384;48.112;18.418;2023-04-24T09:22:40;12.47;;;11.57;;
24259;SDS011;12384;48.112;18.418;2023-04-24T09:25:10;14.63;;;13.13;;
24259;SDS011;12384;48.112;18.418;2023-04-24T09:27:41;13.67;;;12.23;;
24259;SDS011;12384;48.112;18.418;2023-04-24T09:30:13;15.00;;;13.80;;
24259;SDS011;12384;48.112;18.418;2023-04-24T09:32:48;15.03;;;13.63;;
24259;SDS011;12384;48.112;18.418;2023-04-24T09:35:17;13.20;;;12.20;;
24259;SDS011;12384;48.112;18.418;2023-04-24T09:37:46;13.80;;;12.70;;
24259;SDS011;12384;48.112;18.418;2023-04-24T09:40:15;14.10;;;12.70;;
24259;SDS011;12384;48.112;18.418;2023-04-24T09:42:45;13.93;;;12.47;;
24259;SDS011;12384;48.112;18.418;2023-04-24T09:45:21;14.40;;;13.10;;
24259;SDS011;12384;48.112;18.418;2023-04-24T09:47:51;14.00;;;12.77;;
24259;SDS011;12384;48.112;18.418;2023-04-24T09:50:21;15.13;;;13.70;;
24259;SDS011;12384;48.112;18.418;2023-04-24T09:52:55;19.07;;;15.90;;
24259;SDS011;12384;48.112;18.418;2023-04-24T09:55:25;22.47;;;17.10;;
24259;SDS011;12384;48.112;18.418;2023-04-24T09:57:55;21.33;;;14.83;;
24259;SDS011;12384;48.112;18.418;2023-04-24T10:00:28;15.77;;;14.30;;
24259;SDS011;12384;48.112;18.418;2023-04-24T10:02:58;16.07;;;14.70;;
24259;SDS011;12384;48.112;18.418;2023-04-24T10:05:28;14.40;;;13.30;;
24259;SDS011;12384;48.112;18.418;2023-04-24T10:08:02;15.07;;;13.87;;
24259;SDS011;12384;48.112;18.418;2023-04-24T10:10:32;14.77;;;13.33;;
24259;SDS011;12384;48.112;18.418;2023-04-24T10:13:01;18.13;;;14.53;;
24259;SDS011;12384;48.112;18.418;2023-04-24T10:15:33;16.47;;;15.07;;
24259;SDS011;12384;48.112;18.418;2023-04-24T10:18:02;14.83;;;13.63;;
24259;SDS011;12384;48.112;18.418;2023-04-24T10:20:35;14.57;;;13.43;;
24259;SDS011;12384;48.112;18.418;2023-04-24T10:23:05;15.60;;;14.00;;
24259;SDS011;12384;48.112;18.418;2023-04-24T10:25:35;16.20;;;14.60;;
24259;SDS011;12384;48.112;18.418;2023-04-24T10:28:04;14.33;;;13.23;;
24259;SDS011;12384;48.112;18.418;2023-04-24T10:30:37;14.67;;;13.47;;
24259;SDS011;12384;48.112;18.418;2023-04-24T10:33:10;15.00;;;13.77;;
24259;SDS011;12384;48.112;18.418;2023-04-24T10:35:40;14.20;;;12.80;;
24259;SDS011;12384;48.112;18.418;2023-04-24T10:38:12;14.00;;;13.00;;
24259;SDS011;12384;48.112;18.418;2023-04-24T10:40:43;14.13;;;13.03;;
24259;SDS011;12384;48.112;18.418;2023-04-24T10:43:13;13.93;;;12.93;;
24259;SDS011;12384;48.112;18.418;2023-04-24T10:48:43;14.47;;;13.20;;
24259;SDS011;12384;48.112;18.418;2023-04-24T10:51:21;12.83;;;11.93;;
24259;SDS011;12384;48.112;18.418;2023-04-24T10:53:50;14.33;;;13.20;;
24259;SDS011;12384;48.112;18.418;2023-04-24T10:56:19;13.00;;;12.00;;
24259;SDS011;12384;48.112;18.418;2023-04-24T10:58:50;12.53;;;11.73;;
24259;SDS011;12384;48.112;18.418;2023-04-24T11:01:24;12.63;;;11.73;;
24259;SDS011;12384;48.112;18.418;2023-04-24T11:03:56;13.70;;;12.70;;
24259;SDS011;12384;48.112;18.418;2023-04-24T11:06:28;13.33;;;12.30;;
24259;SDS011;12384;48.112;18.418;2023-04-24T11:09:01;13.30;;;12.43;;
24259;SDS011;12384;48.112;18.418;2023-04-24T11:11:33;12.37;;;11.67;;
24259;SDS011;12384;48.112;18.418;2023-04-24T11:14:04;14.53;;;13.53;;
24259;SDS011;12384;48.112;18.418;2023-04-24T11:16:34;15.00;;;13.90;;
24259;SDS011;12384;48.112;18.418;2023-04-24T11:19:08;13.93;;;13.03;;
24259;SDS011;12384;48.112;18.418;2023-04-24T11:21:41;13.30;;;12.50;;
24259;SDS011;12384;48.112;18.418;2023-04-24T11:24:24;15.80;;;14.50;;
24259;SDS011;12384;48.112;18.418;2023-04-24T11:26:58;14.83;;;13.83;;
24259;SDS011;12384;48.112;18.418;2023-04-24T11:29:40;14.23;;;13.13;;
24259;SDS011;12384;48.112;18.418;2023-04-24T11:32:17;14.00;;;13.10;;
24259;SDS011;12384;48.112;18.418;2023-04-24T11:34:57;14.73;;;13.63;;
24259;SDS011;12384;48.112;18.418;2023-04-24T11:37:27;15.60;;;14.50;;
24259;SDS011;12384;48.112;18.418;2023-04-24T11:39:57;14.43;;;13.43;;
24259;SDS011;12384;48.112;18.418;2023-04-24T11:42:27;18.77;;;17.20;;
24259;SDS011;12384;48.112;18.418;2023-04-24T11:44:56;17.80;;;16.50;;
24259;SDS011;12384;48.112;18.418;2023-04-24T11:47:27;16.50;;;15.30;;
24259;SDS011;12384;48.112;18.418;2023-04-24T11:49:58;16.57;;;15.37;;
24259;SDS011;12384;48.112;18.418;2023-04-24T11:52:27;17.23;;;15.93;;
24259;SDS011;12384;48.112;18.418;2023-04-24T11:54:56;22.73;;;21.03;;
24259;SDS011;12384;48.112;18.418;2023-04-24T11:57:26;20.30;;;18.80;;
24259;SDS011;12384;48.112;18.418;2023-04-24T12:00:00;18.40;;;17.13;;
24259;SDS011;12384;48.112;18.418;2023-04-24T12:02:37;20.43;;;18.90;;
24259;SDS011;12384;48.112;18.418;2023-04-24T12:05:08;19.20;;;17.70;;
24259;SDS011;12384;48.112;18.418;2023-04-24T12:07:40;19.07;;;17.77;;
24259;SDS011;12384;48.112;18.418;2023-04-24T12:10:10;19.83;;;18.33;;
24259;SDS011;12384;48.112;18.418;2023-04-24T12:12:38;19.17;;;17.87;;
24259;SDS011;12384;48.112;18.418;2023-04-24T12:15:07;16.90;;;15.70;;
24259;SDS011;12384;48.112;18.418;2023-04-24T12:17:40;17.47;;;16.23;;
24259;SDS011;12384;48.112;18.418;2023-04-24T12:20:12;17.57;;;16.33;;
24259;SDS011;12384;48.112;18.418;2023-04-24T12:22:45;19.73;;;18.23;;
24259;SDS011;12384;48.112;18.418;2023-04-24T12:25:14;18.33;;;17.03;;
24259;SDS011;12384;48.112;18.418;2023-04-24T12:27:44;18.50;;;17.10;;
24259;SDS011;12384;48.112;18.418;2023-04-24T12:30:14;15.67;;;14.67;;
24259;SDS011;12384;48.112;18.418;2023-04-24T12:32:45;16.57;;;15.40;;
24259;SDS011;12384;48.112;18.418;2023-04-24T12:35:19;16.07;;;14.87;;
24259;SDS011;12384;48.112;18.418;2023-04-24T12:37:49;16.53;;;15.20;;
24259;SDS011;12384;48.112;18.418;2023-04-24T12:40:19;14.80;;;13.80;;
24259;SDS011;12384;48.112;18.418;2023-04-24T12:42:49;13.57;;;12.47;;
24259;SDS011;12384;48.112;18.418;2023-04-24T12:45:21;12.37;;;11.57;;
24259;SDS011;12384;48.112;18.418;2023-04-24T12:47:52;12.67;;;11.70;;
24259;SDS011;12384;48.112;18.418;2023-04-24T12:50:21;13.07;;;12.17;;
24259;SDS011;12384;48.112;18.418;2023-04-24T12:52:50;12.97;;;12.07;;
24259;SDS011;12384;48.112;18.418;2023-04-24T12:55:18;12.33;;;11.63;;
24259;SDS011;12384;48.112;18.418;2023-04-24T12:57:47;12.70;;;11.90;;
24259;SDS011;12384;48.112;18.418;2023-04-24T13:00:15;12.17;;;11.40;;
24259;SDS011;12384;48.112;18.418;2023-04-24T13:02:46;11.03;;;10.33;;
24259;SDS011;12384;48.112;18.418;2023-04-24T13:05:15;11.50;;;10.80;;
24259;SDS011;12384;48.112;18.418;2023-04-24T13:07:45;11.43;;;10.67;;
24259;SDS011;12384;48.112;18.418;2023-04-24T13:10:13;10.93;;;10.23;;
24259;SDS011;12384;48.112;18.418;2023-04-24T13:12:41;12.00;;;11.10;;
24259;SDS011;12384;48.112;18.418;2023-04-24T13:15:12;11.93;;;11.03;;
24259;SDS011;12384;48.112;18.418;2023-04-24T13:17:41;12.37;;;11.67;;
24259;SDS011;12384;48.112;18.418;2023-04-24T13:20:09;12.70;;;11.80;;
24259;SDS011;12384;48.112;18.418;2023-04-24T13:22:38;12.10;;;11.20;;
24259;SDS011;12384;48.112;18.418;2023-04-24T13:25:08;12.57;;;11.77;;
24259;SDS011;12384;48.112;18.418;2023-04-24T13:27:37;11.83;;;11.03;;
24259;SDS011;12384;48.112;18.418;2023-04-24T13:30:07;12.30;;;11.50;;
24259;SDS011;12384;48.112;18.418;2023-04-24T13:32:36;11.77;;;11.07;;
24259;SDS011;12384;48.112;18.418;2023-04-24T13:35:04;11.50;;;10.80;;
24259;SDS011;12384;48.112;18.418;2023-04-24T13:37:33;12.33;;;11.63;;
24259;SDS011;12384;48.112;18.418;2023-04-24T13:40:02;10.93;;;10.20;;
24259;SDS011;12384;48.112;18.418;2023-04-24T13:42:34;11.70;;;11.00;;
24259;SDS011;12384;48.112;18.418;2023-04-24T13:45:02;11.47;;;10.70;;
24259;SDS011;12384;48.112;18.418;2023-04-24T13:47:50;12.10;;;11.40;;
24259;SDS011;12384;48.112;18.418;2023-04-24T13:50:20;11.00;;;10.40;;
24259;SDS011;12384;48.112;18.418;2023-04-24T13:52:49;11.57;;;10.90;;
24259;SDS011;12384;48.112;18.418;2023-04-24T13:55:17;11.70;;;10.77;;
24259;SDS011;12384;48.112;18.418;2023-04-24T13:57:47;12.10;;;11.40;;
24259;SDS011;12384;48.112;18.418;2023-04-24T14:00:18;11.17;;;10.40;;
24259;SDS011;12384;48.112;18.418;2023-04-24T14:02:47;12.37;;;11.67;;
24259;SDS011;12384;48.112;18.418;2023-04-24T14:05:16;11.97;;;11.27;;
24259;SDS011;12384;48.112;18.418;2023-04-24T14:07:45;12.10;;;11.40;;
24259;SDS011;12384;48.112;18.418;2023-04-24T14:10:13;11.33;;;10.63;;
24259;SDS011;12384;48.112;18.418;2023-04-24T14:12:42;11.93;;;11.23;;
24259;SDS011;12384;48.112;18.418;2023-04-24T14:15:11;11.60;;;10.97;;
24259;SDS011;12384;48.112;18.418;2023-04-24T14:17:40;11.27;;;10.57;;
24259;SDS011;12384;48.112;18.418;2023-04-24T14:20:09;11.47;;;10.77;;
24259;SDS011;12384;48.112;18.418;2023-04-24T14:22:38;11.13;;;10.50;;
24259;SDS011;12384;48.112;18.418;2023-04-24T14:25:07;10.90;;;10.20;;
24259;SDS011;12384;48.112;18.418;2023-04-24T14:27:36;11.00;;;10.30;;
24259;SDS011;12384;48.112;18.418;2023-04-24T14:30:04;9.80;;;9.30;;